Impacts METAR Board
IDs:

KMGM - Montgomery/Dannely F, AL, US

Updated at: 1200 UTC 20 May 2018
Potential Impact None Slight Moderate High
Time 20/00Z 20/01Z 20/02Z 20/03Z 20/04Z 20/05Z 20/06Z 20/07Z 20/08Z 20/09Z 20/10Z 20/11Z 20/12Z
Temp87 84 79 78 77 72 73 72 71 71 70 70 72
Dewpt68 69 70 71 70 70 69 70 69 69 68 68 70
Altim29.99 30.01 30.02 30.06 30.06 30.05 30.05 30.06 30.04 30.06 30.07 30.07 30.10
VIS10 10 10 10 10 10 10 8 8 8 5 4 4
CIG-- -- -- 50 -- -- -- -- -- -- -- -- --
CoverCLRCLRCLRBKNCLRCLRCLRCLRCLRCLRCLRCLRCLR
FltCatVFRVFRVFRVFRVFRVFRVFRVFRVFRVFRMVFRMVFRMVFR
WX--------------------BRBRBR
WDir29001800017017010015015002100
WSpd5 0 4 0 0 5 3 5 5 3 0 4 0
WGst-- -- -- -- -- -- -- -- -- -- -- -- --
Raw hourly METARs
KMGM 192353Z 29005KT 10SM CLR 31/20 A2999 RMK AO2 LTG DSNT W SLP152 T03060200 10333 20306 53009
KMGM 200053Z 00000KT 10SM CLR 29/21 A3001 RMK AO2 SLP159 T02890206
KMGM 200153Z 18004KT 10SM CLR 26/21 A3002 RMK AO2 SLP163 T02610211
KMGM 200253Z 00000KT 10SM BKN050 26/22 A3006 RMK AO2 SLP175 T02560217 53022
KMGM 200353Z AUTO 00000KT 10SM CLR 25/21 A3006 RMK AO2 SLP176 T02500211
KMGM 200453Z AUTO 17005KT 10SM CLR 22/21 A3005 RMK AO2 SLP174 T02220211
KMGM 200553Z AUTO 17003KT 10SM CLR 23/21 A3005 RMK AO2 SLP173 T02280206 10306 20222 403330194 58002
KMGM 200653Z AUTO 10005KT 8SM CLR 22/21 A3006 RMK AO2 SLP175 T02220211
KMGM 200753Z AUTO 15005KT 8SM CLR 22/21 A3004 RMK AO2 SLP170 T02170206
KMGM 200853Z AUTO 15003KT 8SM CLR 22/21 A3006 RMK AO2 SLP176 T02170206 53003
KMGM 200953Z AUTO 00000KT 5SM BR CLR 21/20 A3007 RMK AO2 SLP178 T02110200
KMGM 201053Z AUTO 21004KT 4SM BR CLR 21/20 A3007 RMK AO2 SLP181 T02110200
KMGM 201153Z 00000KT 4SM BR CLR 22/21 A3010 RMK AO2 SLP189 T02220211 10233 20200 53013



Page loaded:  12:21 UTC  |   05:21 AM Pacific  |   06:21 AM Mountain  |   07:21 AM Central  |   08:21 AM Eastern

 

ADVISORIES

FORECASTS

FORECASTS

OBSERVATIONS

USER TOOLS

ABOUT US